createdAt,value
2022-11-05T00:01:11.057Z,100682.33
2022-11-05T00:02:10.256Z,100684.18
2022-11-05T00:03:10.637Z,100685.91
2022-11-05T00:04:10.665Z,100680.58
2022-11-05T00:05:14.167Z,100680.73
2022-11-05T00:06:11.719Z,100682.51
2022-11-05T00:08:15.508Z,100676.91
2022-11-05T00:09:16.130Z,100677.61
2022-11-05T00:11:18.563Z,100677.81
2022-11-05T00:12:17.910Z,100681.48
2022-11-05T00:13:18.516Z,100682.7
2022-11-05T00:15:19.146Z,100680.38
2022-11-05T00:16:19.254Z,100684.04
2022-11-05T00:17:19.467Z,100688.27
2022-11-05T00:18:20.103Z,100687.05
2022-11-05T00:19:20.318Z,100688.19
2022-11-05T00:20:20.715Z,100690.75
2022-11-05T00:21:21.039Z,100688.32
2022-11-05T00:22:21.345Z,100689.63
2022-11-05T00:23:21.671Z,100690.48
2022-11-05T00:24:24.371Z,100690.55
2022-11-05T00:25:22.496Z,100693.55
2022-11-05T00:26:22.494Z,100699.36
2022-11-05T00:28:23.324Z,100699.92
2022-11-05T00:29:23.646Z,100704.45
2022-11-05T00:30:26.202Z,100706.8
2022-11-05T00:31:24.056Z,100705.8
2022-11-05T00:32:24.485Z,100702.19
2022-11-05T00:33:25.012Z,100702.89
2022-11-05T00:34:25.101Z,100704
2022-11-05T00:35:25.541Z,100709.5
2022-11-05T00:36:25.957Z,100711.13
2022-11-05T00:37:28.934Z,100709.38
2022-11-05T00:38:26.577Z,100711.28
2022-11-05T00:39:26.892Z,100706.95
2022-11-05T00:40:27.265Z,100709.77
2022-11-05T00:41:27.504Z,100709.17
2022-11-05T00:42:28.043Z,100708.79
2022-11-05T00:43:28.164Z,100703.16
2022-11-05T00:44:28.457Z,100703.3
2022-11-05T00:45:30.532Z,100702.64
2022-11-05T00:46:29.286Z,100704.52
2022-11-05T00:47:30.824Z,100702.73
2022-11-05T00:48:29.915Z,100703.06
2022-11-05T00:49:30.227Z,100702.52
2022-11-05T00:50:31.043Z,100701.78
2022-11-05T00:51:30.957Z,100702.28
2022-11-05T00:52:31.063Z,100706.26
2022-11-05T00:53:31.683Z,100703.99
2022-11-05T00:54:31.903Z,100706.01
2022-11-05T00:56:37.341Z,100701.77
2022-11-05T00:57:37.548Z,100699.76
2022-11-05T00:59:38.387Z,100707.38
2022-11-05T01:00:40.943Z,100703.13
2022-11-05T01:01:39.190Z,100705.02
2022-11-05T01:02:39.351Z,100707.97
2022-11-05T01:03:40.253Z,100707.38
2022-11-05T01:04:39.954Z,100709.2
2022-11-05T01:05:52.654Z,100711.78
2022-11-05T01:06:45.286Z,100708.67
2022-11-05T01:07:45.394Z,100707.34
2022-11-05T01:08:46.527Z,100712.15
2022-11-05T01:09:46.125Z,100710.47
2022-11-05T01:10:49.094Z,100707.27
2022-11-05T01:11:46.969Z,100713.34
2022-11-05T01:12:47.167Z,100703.76
2022-11-05T01:13:47.593Z,100715.76
2022-11-05T01:14:47.916Z,100711.97
2022-11-05T01:15:48.421Z,100714.41
2022-11-05T01:16:48.419Z,100714.03
2022-11-05T01:17:48.955Z,100714.12
2022-11-05T01:18:49.254Z,100715.15
2022-11-05T01:19:49.465Z,100718.61
2022-11-05T01:20:50.206Z,100712.92
2022-11-05T01:21:49.994Z,100716.47
2022-11-05T01:22:50.364Z,100722.84
2022-11-05T01:23:50.922Z,100716.05
2022-11-05T01:24:51.036Z,100721.69
2022-11-05T01:25:51.556Z,100716.56
2022-11-05T01:26:51.664Z,100716.62
2022-11-05T01:27:52.279Z,100713.39
2022-11-05T01:28:53.657Z,100715.14
2022-11-05T01:29:52.816Z,100718.55
2022-11-05T01:30:56.918Z,100713.02
2022-11-05T01:31:54.580Z,100711.17
2022-11-05T01:32:54.984Z,100711.52
2022-11-05T01:33:55.188Z,100712.88
2022-11-05T01:34:55.413Z,100713.77
2022-11-05T01:35:55.826Z,100716.88
2022-11-05T01:36:56.243Z,100712.39
2022-11-05T01:37:56.353Z,100717.7
2022-11-05T01:38:56.665Z,100718.22
2022-11-05T01:39:57.193Z,100711.12
2022-11-05T01:40:57.386Z,100709.5
2022-11-05T01:41:57.910Z,100713.2
2022-11-05T01:42:58.017Z,100713.72
2022-11-05T01:43:59.677Z,100713.09
2022-11-05T01:46:01.945Z,100713.98
2022-11-05T01:47:02.350Z,100714.7
2022-11-05T01:52:11.187Z,100715.93
2022-11-05T01:57:21.758Z,100721.67
2022-11-05T01:58:24.535Z,100721.79
2022-11-05T02:00:26.116Z,100719.89
2022-11-05T02:01:26.944Z,100721.78
2022-11-05T02:02:27.779Z,100715.63
2022-11-05T02:03:28.564Z,100719.89
2022-11-05T02:05:32.250Z,100718.7
2022-11-05T02:06:35.136Z,100719.73
2022-11-05T02:07:34.021Z,100721.85
2022-11-05T02:10:40.606Z,100709.03
2022-11-05T02:11:40.499Z,100708.31
2022-11-05T02:12:43.989Z,100704
2022-11-05T02:13:41.521Z,100706.8
2022-11-05T02:14:41.853Z,100706.02
2022-11-05T02:53:17.125Z,100715.91
2022-11-05T02:55:26.557Z,100721.7
2022-11-05T02:56:28.186Z,100726.3
2022-11-05T02:57:22.404Z,100715.98
2022-11-05T02:58:21.873Z,100721.41
2022-11-05T02:59:21.574Z,100717.2
2022-11-05T03:01:25.777Z,100721.91
2022-11-05T03:02:26.202Z,100718.38
2022-11-05T03:04:30.914Z,100727.24
2022-11-05T03:19:20.561Z,100744
2022-11-05T03:25:29.302Z,100748.52
2022-11-05T03:30:39.382Z,100741.89
2022-11-05T03:31:39.911Z,100740.54
2022-11-05T03:33:43.207Z,100745.37
2022-11-05T03:38:56.213Z,100734.45
2022-11-05T03:42:01.151Z,100738.08
2022-11-05T03:47:15.526Z,100733.22
2022-11-05T03:48:16.689Z,100736.58
2022-11-05T03:49:21.502Z,100740.66
2022-11-05T03:54:28.373Z,100749.78
2022-11-05T03:57:36.384Z,100744.58
2022-11-05T03:58:35.873Z,100746.78
2022-11-05T03:59:41.603Z,100748.25
2022-11-05T04:00:39.475Z,100750.36
2022-11-05T04:01:41.834Z,100755.42
2022-11-05T04:02:40.068Z,100752.73
2022-11-05T04:03:40.203Z,100755
2022-11-05T04:04:41.401Z,100754.38
2022-11-05T04:05:41.242Z,100754.8
2022-11-05T04:06:41.142Z,100753.56
2022-11-05T04:07:43.097Z,100752.59
2022-11-05T04:08:41.762Z,100751.35
2022-11-05T04:09:42.086Z,100747.06
2022-11-05T04:10:42.292Z,100746.36
2022-11-05T04:11:42.712Z,100753.05
2022-11-05T04:12:43.035Z,100748.99
2022-11-05T04:13:43.564Z,100746.87
2022-11-05T04:14:43.773Z,100748.3
2022-11-05T04:15:43.975Z,100741.3
2022-11-05T04:16:44.393Z,100741.55
2022-11-05T04:17:44.704Z,100740.34
2022-11-05T04:18:45.015Z,100737.22
2022-11-05T04:19:45.944Z,100735.08
2022-11-05T04:20:45.633Z,100737.1
2022-11-05T04:21:45.953Z,100732.69
2022-11-05T04:22:46.277Z,100733.15
2022-11-05T04:23:46.586Z,100733.62
2022-11-05T04:24:46.786Z,100731.23
2022-11-05T04:25:47.523Z,100728.95
2022-11-05T04:26:47.528Z,100730.81
2022-11-05T04:27:48.964Z,100723.47
2022-11-05T04:28:48.044Z,100723.62
2022-11-05T04:29:48.413Z,100721.97
2022-11-05T04:30:48.771Z,100714.75
2022-11-05T04:31:49.340Z,100715.01
2022-11-05T04:33:53.204Z,100718.23
2022-11-05T04:34:53.829Z,100718.91
2022-11-05T04:35:54.263Z,100722.05
2022-11-05T04:36:54.374Z,100716.53
2022-11-05T04:37:54.765Z,100721.5
2022-11-05T04:38:55.075Z,100723.08
2022-11-05T04:39:55.283Z,100723.42
2022-11-05T04:41:59.606Z,100720.07
2022-11-05T04:43:01.453Z,100721.58
2022-11-05T04:44:00.234Z,100720.76
2022-11-05T04:45:00.755Z,100721.91
2022-11-05T04:46:00.872Z,100722.92
2022-11-05T04:47:01.386Z,100721.72
2022-11-05T04:48:04.973Z,100721.67
2022-11-05T04:49:02.506Z,100721.3
2022-11-05T04:50:03.351Z,100722.49
2022-11-05T04:51:03.353Z,100719.29
2022-11-05T04:52:03.554Z,100720.17
2022-11-05T04:53:03.879Z,100719.91
2022-11-05T04:54:04.494Z,100719.98
2022-11-05T04:55:05.114Z,100722.1
2022-11-05T04:56:12.703Z,100720.2
2022-11-05T04:57:05.337Z,100718.12
2022-11-05T04:58:05.949Z,100721.03
2022-11-05T04:59:06.057Z,100715.56
2022-11-05T05:00:08.016Z,100719.71
2022-11-05T05:01:06.819Z,100713.99
2022-11-05T05:02:07.373Z,100714.03
2022-11-05T05:03:07.217Z,100713.86
2022-11-05T05:04:07.441Z,100716.33
2022-11-05T05:05:08.464Z,100717.14
2022-11-05T05:06:08.778Z,100713.93
2022-11-05T05:07:08.568Z,100717.38
2022-11-05T05:08:09.635Z,100718.11
2022-11-05T05:09:09.205Z,100717.52
2022-11-05T05:10:10.856Z,100716.95
2022-11-05T05:11:12.904Z,100711.25
2022-11-05T05:12:10.562Z,100718.84
2022-11-05T05:13:12.481Z,100714.14
2022-11-05T05:14:11.394Z,100718.19
2022-11-05T05:15:11.923Z,100714.94
2022-11-05T05:16:19.493Z,100718.16
2022-11-05T05:17:17.753Z,100714.66
2022-11-05T05:18:17.547Z,100715.73
2022-11-05T05:19:17.965Z,100718.55
2022-11-05T05:20:18.892Z,100716.92
2022-11-05T05:21:20.444Z,100716.09
2022-11-05T05:22:18.717Z,100718.6
2022-11-05T05:23:19.320Z,100717.51
2022-11-05T05:24:20.864Z,100716.64
2022-11-05T05:25:19.857Z,100719.12
2022-11-05T05:26:19.982Z,100726.64
2022-11-05T05:27:20.897Z,100723.98
2022-11-05T05:28:20.791Z,100723.73
2022-11-05T05:29:21.414Z,100730.55
2022-11-05T05:30:21.636Z,100725.3
2022-11-05T05:31:22.676Z,100723.8
2022-11-05T05:32:22.155Z,100727.38
2022-11-05T05:33:22.365Z,100729.81
2022-11-05T05:34:22.672Z,100731.5
2022-11-05T05:35:23.298Z,100731.88
2022-11-05T05:36:24.233Z,100734.63
2022-11-05T05:37:23.842Z,100736.05
2022-11-05T05:38:24.148Z,100734.89
2022-11-05T05:39:24.555Z,100734.29
2022-11-05T05:40:24.863Z,100733.55
2022-11-05T05:41:25.603Z,100735.58
2022-11-05T05:42:25.185Z,100736.28
2022-11-05T05:43:29.392Z,100737.97
2022-11-05T05:44:27.038Z,100737.09
2022-11-05T05:45:27.256Z,100739.77
2022-11-05T05:46:27.562Z,100738.9
2022-11-05T05:47:27.986Z,100746.14
2022-11-05T05:48:28.095Z,100743.45
2022-11-05T05:49:28.504Z,100740.36
2022-11-05T05:50:28.937Z,100748.33
2022-11-05T05:51:29.252Z,100745.3
2022-11-05T05:52:29.664Z,100753.66
2022-11-05T05:53:30.074Z,100751.99
2022-11-05T05:54:32.832Z,100755.48
2022-11-05T05:55:31.719Z,100760.31
2022-11-05T05:56:32.135Z,100757.7
2022-11-05T05:57:32.657Z,100764.66
2022-11-05T05:58:38.203Z,100763.58
2022-11-05T05:59:35.644Z,100767.94
2022-11-05T06:00:35.885Z,100766.9
2022-11-05T06:01:36.392Z,100773.05
2022-11-05T06:02:36.590Z,100771.31
2022-11-05T06:03:36.899Z,100768.59
2022-11-05T06:04:37.313Z,100766.61
2022-11-05T06:05:37.730Z,100764.38
2022-11-05T06:06:37.941Z,100772.42
2022-11-05T06:07:38.150Z,100768.75
2022-11-05T06:08:39.490Z,100777.5
2022-11-05T06:09:38.876Z,100773.31
2022-11-05T06:10:39.357Z,100775.45
2022-11-05T06:11:39.534Z,100777.58
2022-11-05T06:12:39.816Z,100777.41
2022-11-05T06:13:40.133Z,100778.28
2022-11-05T06:14:40.548Z,100778.83
2022-11-05T06:15:40.966Z,100774.91
2022-11-05T06:16:41.276Z,100775.73
2022-11-05T06:17:43.763Z,100783.07
2022-11-05T06:18:41.807Z,100780.62
2022-11-05T06:19:42.031Z,100778.7
2022-11-05T06:20:43.059Z,100782.52
2022-11-05T06:21:42.642Z,100775.19
2022-11-05T06:22:43.058Z,100786.22
2022-11-05T06:23:45.846Z,100781.33
2022-11-05T06:24:43.682Z,100780.78
2022-11-05T06:25:43.894Z,100782.27
2022-11-05T06:26:44.321Z,100785.83
2022-11-05T06:27:44.632Z,100784.06
2022-11-05T06:28:45.983Z,100772.33
2022-11-05T06:29:45.258Z,100775.62
2022-11-05T06:30:51.414Z,100772.48
2022-11-05T06:31:49.059Z,100775.38
2022-11-05T06:32:49.263Z,100777.09
2022-11-05T06:33:49.688Z,100776.64
2022-11-05T06:34:49.891Z,100779.12
2022-11-05T06:35:50.103Z,100778.84
2022-11-05T06:36:50.725Z,100778.55
2022-11-05T06:37:50.861Z,100776.01
2022-11-05T06:38:51.259Z,100774.53
2022-11-05T06:39:51.474Z,100774.12
2022-11-05T06:40:51.887Z,100774.22
2022-11-05T06:42:19.693Z,100777.55
2022-11-05T06:42:54.862Z,100775.09
2022-11-05T06:43:54.869Z,100773.89
2022-11-05T06:44:55.807Z,100772.92
2022-11-05T06:45:56.000Z,100775.45
2022-11-05T06:46:55.914Z,100773.91
2022-11-05T06:47:59.294Z,100773.52
2022-11-05T06:48:56.538Z,100773.94
2022-11-05T06:49:57.168Z,100770.28
2022-11-05T06:50:57.274Z,100773.52
2022-11-05T06:51:58.604Z,100765.57
2022-11-05T06:52:59.734Z,100771.5
2022-11-05T06:53:58.426Z,100764.48
2022-11-05T06:54:58.722Z,100769.59
2022-11-05T06:56:03.029Z,100766.59
2022-11-05T06:57:00.281Z,100767.8
2022-11-05T06:58:00.688Z,100766.84
2022-11-05T07:01:08.437Z,100772.7
2022-11-05T07:02:07.496Z,100767.41
2022-11-05T07:03:08.494Z,100766.56
2022-11-05T07:04:06.995Z,100768.84
2022-11-05T07:05:07.905Z,100766.16
2022-11-05T07:06:08.120Z,100766.86
2022-11-05T07:07:08.126Z,100768.59
2022-11-05T07:08:08.537Z,100765.33
2022-11-05T07:09:08.860Z,100770.27
2022-11-05T07:11:11.841Z,100769
2022-11-05T07:12:12.356Z,100772.28
2022-11-05T07:13:12.886Z,100774.93
2022-11-05T07:14:12.888Z,100776.39
2022-11-05T07:15:13.401Z,100779.33
2022-11-05T07:16:13.515Z,100776.52
2022-11-05T07:17:13.823Z,100777.41
2022-11-05T07:18:14.249Z,100771
2022-11-05T07:19:14.384Z,100768.08
2022-11-05T07:20:14.868Z,100770.5
2022-11-05T07:21:15.180Z,100771.23
2022-11-05T07:22:15.598Z,100767.42
2022-11-05T07:23:16.528Z,100768.75
2022-11-05T07:24:16.127Z,100773.56
2022-11-05T07:25:16.638Z,100771.73
2022-11-05T07:26:16.649Z,100769.03
2022-11-05T07:27:17.624Z,100771.33
2022-11-05T07:28:17.699Z,100769.86
2022-11-05T07:29:17.586Z,100772.24
2022-11-05T07:30:18.309Z,100770.36
2022-11-05T07:31:18.623Z,100769.56
2022-11-05T07:32:18.731Z,100769.53
2022-11-05T07:33:18.843Z,100764.82
2022-11-05T07:34:19.192Z,100769.69
2022-11-05T07:35:19.681Z,100767.75
2022-11-05T07:36:20.095Z,100768.94
2022-11-05T07:37:20.302Z,100771.52
2022-11-05T07:38:20.724Z,100774.02
2022-11-05T07:39:21.547Z,100768.27
2022-11-05T07:40:23.200Z,100766.39
2022-11-05T07:41:21.558Z,100771.55
2022-11-05T07:42:21.892Z,100763.59
2022-11-05T07:43:22.286Z,100769.69
2022-11-05T07:44:22.715Z,100762.95
2022-11-05T07:45:23.938Z,100767.64
2022-11-05T07:46:23.243Z,100760.63
2022-11-05T07:47:23.542Z,100761.22
2022-11-05T07:48:23.886Z,100759.26
2022-11-05T07:49:24.176Z,100758.97
2022-11-05T07:50:26.237Z,100763.3
2022-11-05T07:51:25.035Z,100756.84
2022-11-05T07:52:25.235Z,100754.3
2022-11-05T07:53:25.747Z,100763.77
2022-11-05T07:54:25.945Z,100758.94
2022-11-05T07:55:26.259Z,100761.56
2022-11-05T07:56:26.675Z,100761.91
2022-11-05T07:57:27.091Z,100762.73
2022-11-05T07:58:27.409Z,100764.74
2022-11-05T07:59:27.549Z,100769.69
2022-11-05T08:00:28.565Z,100767.02
2022-11-05T08:01:28.454Z,100766.84
2022-11-05T08:02:29.124Z,100767.7
2022-11-05T08:03:29.037Z,100765.23
2022-11-05T08:04:29.215Z,100762.09
2022-11-05T08:05:30.831Z,100758.52
2022-11-05T08:06:30.029Z,100762.41
2022-11-05T08:07:30.341Z,100761.16
2022-11-05T08:08:30.445Z,100762.76
2022-11-05T08:09:31.163Z,100754.13
2022-11-05T08:10:32.605Z,100755.86
2022-11-05T08:11:32.009Z,100755.94
2022-11-05T08:12:32.521Z,100757.18
2022-11-05T08:13:32.624Z,100761.91
2022-11-05T08:14:32.637Z,100760.52
2022-11-05T08:15:33.790Z,100754.38
2022-11-05T08:16:33.062Z,100760.81
2022-11-05T08:17:33.376Z,100759.26
2022-11-05T08:18:34.001Z,100761.72
2022-11-05T08:19:34.156Z,100762.97
2022-11-05T08:20:35.648Z,100766.81
2022-11-05T08:21:34.932Z,100769.62
2022-11-05T08:22:35.054Z,100773.92
2022-11-05T08:23:35.374Z,100775.62
2022-11-05T08:24:35.767Z,100774.25
2022-11-05T08:25:36.299Z,100779.88
2022-11-05T08:26:36.505Z,100772.64
2022-11-05T08:27:36.927Z,100771.67
2022-11-05T08:28:36.943Z,100762.38
2022-11-05T08:29:37.454Z,100764.51
2022-11-05T08:30:37.766Z,100762.64
2022-11-05T08:31:38.169Z,100761.4
2022-11-05T08:32:38.390Z,100757.77
2022-11-05T08:33:38.796Z,100761.62
2022-11-05T08:34:39.016Z,100765.23
2022-11-05T08:35:40.262Z,100757.06
2022-11-05T08:36:39.644Z,100760.74
2022-11-05T08:37:40.051Z,100761.2
2022-11-05T08:38:40.395Z,100762.73
2022-11-05T08:39:40.795Z,100764.32
2022-11-05T08:40:41.929Z,100762.3
2022-11-05T08:41:41.322Z,100763.75
2022-11-05T08:42:41.729Z,100763.61
2022-11-05T08:43:42.055Z,100767.43
2022-11-05T08:44:42.465Z,100769.31
2022-11-05T08:45:42.674Z,100770.73
2022-11-05T08:46:43.287Z,100768.96
2022-11-05T08:47:43.397Z,100767.68
2022-11-05T08:48:43.715Z,100770.55
2022-11-05T08:49:44.031Z,100769.08
2022-11-05T08:50:46.388Z,100768.47
2022-11-05T08:51:45.368Z,100768.46
2022-11-05T08:52:45.070Z,100772.78
2022-11-05T08:53:45.286Z,100767.58
2022-11-05T08:54:45.700Z,100774.27
2022-11-05T08:55:45.912Z,100770.82
2022-11-05T08:56:46.337Z,100771.06
2022-11-05T08:57:47.972Z,100775.57
2022-11-05T08:58:47.155Z,100778.3
2022-11-05T08:59:47.263Z,100775.91
2022-11-05T09:00:49.619Z,100774.28
2022-11-05T09:01:48.132Z,100765.59
2022-11-05T09:02:48.418Z,100763.97
2022-11-05T09:03:51.484Z,100762.97
2022-11-05T09:04:49.056Z,100764.39
2022-11-05T09:05:49.466Z,100763.22
2022-11-05T09:06:49.675Z,100765.65
2022-11-05T09:07:50.081Z,100762.74
2022-11-05T09:08:50.430Z,100761.61
2022-11-05T09:09:50.811Z,100762.46
2022-11-05T09:10:51.025Z,100763.7
2022-11-05T09:12:11.094Z,100762.47
2022-11-05T09:12:53.801Z,100765.69
2022-11-05T09:13:54.017Z,100763.94
2022-11-05T09:14:54.346Z,100769.54
2022-11-05T09:15:54.657Z,100769.41
2022-11-05T09:16:54.868Z,100769.34
2022-11-05T09:17:55.477Z,100767.16
2022-11-05T09:18:55.686Z,100767.98
2022-11-05T09:19:56.099Z,100773.36
2022-11-05T09:20:56.327Z,100777.53
2022-11-05T09:21:56.427Z,100782.26
2022-11-05T09:22:57.151Z,100779.02
2022-11-05T09:23:57.457Z,100782.81
2022-11-05T09:24:57.579Z,100786.69
2022-11-05T09:25:58.095Z,100782.02
2022-11-05T09:26:58.296Z,100780.79
2022-11-05T09:29:02.519Z,100789.34
2022-11-05T09:30:02.617Z,100789.06
2022-11-05T09:31:10.316Z,100794.4
2022-11-05T09:32:08.576Z,100799.23
2022-11-05T09:33:08.788Z,100803.28
2022-11-05T09:34:08.797Z,100799.22
2022-11-05T09:35:09.921Z,100800.2
2022-11-05T09:36:09.516Z,100803.45
2022-11-05T09:37:09.538Z,100801.02
2022-11-05T09:38:10.268Z,100800.45
2022-11-05T09:39:10.280Z,100799.22
2022-11-05T09:40:17.124Z,100802.47
2022-11-05T09:42:19.078Z,100799.14
2022-11-05T09:45:27.301Z,100798.89
2022-11-05T09:46:26.793Z,100795.61
2022-11-05T09:48:31.108Z,100794.3
2022-11-05T09:50:35.725Z,100790.12
2022-11-05T09:51:34.297Z,100787.55
2022-11-05T09:52:34.713Z,100786.25
2022-11-05T09:53:38.616Z,100781
2022-11-05T09:54:37.489Z,100782.05
2022-11-05T09:56:41.898Z,100764.95
2022-11-05T09:59:47.575Z,100754.58
2022-11-05T10:00:47.105Z,100744.49
2022-11-05T10:01:46.082Z,100742.8
2022-11-05T10:03:51.637Z,100740.38
2022-11-05T10:04:54.508Z,100734.72
2022-11-05T10:05:53.957Z,100726.99
2022-11-05T10:10:04.534Z,100717.34
2022-11-05T10:17:26.989Z,100732.23
2022-11-05T10:21:59.684Z,100729.34
2022-11-05T10:22:33.880Z,100730.31
2022-11-05T10:23:34.617Z,100729.45
2022-11-05T10:24:34.506Z,100725.06
2022-11-05T10:26:36.571Z,100737.28
2022-11-05T10:27:38.419Z,100733.06
2022-11-05T10:28:37.112Z,100731.41
2022-11-05T10:29:37.817Z,100734.64
2022-11-05T10:30:38.345Z,100731.61
2022-11-05T10:31:38.453Z,100729.31
2022-11-05T10:32:41.032Z,100726.83
2022-11-05T10:34:42.865Z,100723.82
2022-11-05T10:35:49.463Z,100718.08
2022-11-05T10:36:41.866Z,100713.28
2022-11-05T10:37:42.490Z,100713.22
2022-11-05T10:38:42.814Z,100711.36
2022-11-05T10:39:43.006Z,100710.5
2022-11-05T10:51:12.976Z,100712.48
2022-11-05T10:54:22.831Z,100723.09
2022-11-05T10:55:27.747Z,100717.31
2022-11-05T10:58:34.234Z,100706.69
2022-11-05T10:59:31.984Z,100700.83
2022-11-05T11:00:32.498Z,100703.53
2022-11-05T11:01:33.373Z,100700.41
2022-11-05T11:02:35.966Z,100696.3
2022-11-05T11:04:38.121Z,100687.83
2022-11-05T11:05:40.509Z,100679.06
2022-11-05T11:06:43.499Z,100678.94
2022-11-05T11:07:41.393Z,100667.26
2022-11-05T11:08:45.463Z,100659.4
2022-11-05T11:09:49.147Z,100658.8
2022-11-05T11:12:55.309Z,100663.2
2022-11-05T11:15:05.046Z,100664.09
2022-11-05T11:22:16.866Z,100663.77
2022-11-05T11:23:16.156Z,100664.69
2022-11-05T11:26:25.508Z,100655.52
2022-11-05T11:29:32.709Z,100654.98
2022-11-05T11:30:31.987Z,100660.53
2022-11-05T11:31:33.533Z,100660.75
2022-11-05T11:33:36.911Z,100656.59
2022-11-05T11:34:37.638Z,100652.42
2022-11-05T11:35:38.259Z,100655.71
2022-11-05T11:37:40.317Z,100661.39
2022-11-05T11:38:40.224Z,100670.73
2022-11-05T11:39:39.714Z,100679.02
2022-11-05T11:40:39.320Z,100674.05
2022-11-05T11:41:44.950Z,100683.46
2022-11-05T11:42:47.620Z,100687.14
2022-11-05T11:43:45.897Z,100690.66
2022-11-05T11:44:47.644Z,100689.46
2022-11-05T11:45:54.099Z,100692.52
2022-11-05T11:46:50.208Z,100692.95
2022-11-05T11:47:49.595Z,100691.86
2022-11-05T11:48:49.407Z,100690.22
2022-11-05T11:49:52.373Z,100683.12
2022-11-05T11:50:50.052Z,100683.65
2022-11-05T11:52:52.907Z,100681.73
2022-11-05T11:53:57.645Z,100684.47
2022-11-05T11:56:56.113Z,100696.97
2022-11-05T11:59:02.880Z,100686.2
2022-11-05T12:00:09.259Z,100686.94
2022-11-05T12:09:32.133Z,100677.95
2022-11-05T12:56:17.017Z,100647
2022-11-05T12:57:12.901Z,100657.61
2022-11-05T12:59:28.668Z,100664.45
2022-11-05T13:00:22.044Z,100668.22
2022-11-05T13:05:44.283Z,100670.7
2022-11-05T13:06:45.301Z,100669.25
2022-11-05T13:07:42.049Z,100674.3
2022-11-05T13:09:50.349Z,100664.41
2022-11-05T13:11:01.511Z,100666.39
2022-11-05T13:11:56.206Z,100665.52
2022-11-05T13:13:02.967Z,100660.8
2022-11-05T13:17:07.288Z,100670.47
2022-11-05T13:18:03.108Z,100667.75
2022-11-05T13:30:34.517Z,100655.74
2022-11-05T13:32:44.158Z,100651.84
2022-11-05T13:33:48.044Z,100646.84
2022-11-05T13:34:45.486Z,100659.53
2022-11-05T13:35:54.828Z,100657.17
2022-11-05T14:02:04.750Z,100638.03
2022-11-05T14:04:04.559Z,100640.98
2022-11-05T14:05:07.314Z,100642.06
2022-11-05T14:06:09.044Z,100645.23
2022-11-05T14:07:15.820Z,100649.36
2022-11-05T14:08:16.435Z,100649.73
2022-11-05T14:09:11.724Z,100652.23
2022-11-05T14:16:27.857Z,100675.56
2022-11-05T14:22:41.929Z,100671.9
2022-11-05T14:23:48.698Z,100669.04
2022-11-05T14:24:42.342Z,100675.48
2022-11-05T14:26:43.898Z,100668.81
2022-11-05T14:29:51.386Z,100678.79
2022-11-05T14:30:51.795Z,100677.03
2022-11-05T14:41:18.388Z,100677.62
2022-11-05T14:43:24.800Z,100681.42
2022-11-05T14:44:24.050Z,100675.41
2022-11-05T14:46:24.556Z,100677.53
2022-11-05T14:52:40.589Z,100678.25
2022-11-05T14:53:40.798Z,100677.95
2022-11-05T14:55:43.268Z,100668.98
2022-11-05T14:56:55.868Z,100671.59
2022-11-05T14:58:47.369Z,100674.45
2022-11-05T15:00:49.034Z,100680.73
2022-11-05T15:01:56.528Z,100680.05
2022-11-05T15:10:12.591Z,100667.33
2022-11-05T15:18:40.048Z,100659.91
2022-11-05T15:19:35.647Z,100651.5
2022-11-05T15:21:38.106Z,100645.92
2022-11-05T15:22:43.134Z,100645.75
2022-11-05T15:23:43.781Z,100646.39
2022-11-05T15:24:42.738Z,100641.97
2022-11-05T15:29:48.087Z,100641.24
2022-11-05T15:31:50.356Z,100639.77
2022-11-05T15:32:49.857Z,100641.5
2022-11-05T15:33:49.654Z,100634.36
2022-11-05T15:34:54.887Z,100634.96
2022-11-05T15:35:52.665Z,100634.09
2022-11-05T15:36:58.689Z,100636.71
2022-11-05T15:38:02.065Z,100634.33
2022-11-05T15:39:28.523Z,100632.47
2022-11-05T15:40:02.504Z,100630.17
2022-11-05T15:43:11.522Z,100628.13
2022-11-05T15:45:20.551Z,100624.95
2022-11-05T15:46:21.683Z,100620.7
2022-11-05T15:49:17.190Z,100624.3
2022-11-05T15:50:17.103Z,100622.21
2022-11-05T15:51:18.745Z,100619.45
2022-11-05T15:52:20.287Z,100616.89
2022-11-05T15:54:30.399Z,100609.15
2022-11-05T15:55:25.437Z,100612.47
2022-11-05T15:56:32.397Z,100608.03
2022-11-05T15:57:28.616Z,100611.27
2022-11-05T15:58:27.401Z,100605.44
2022-11-05T15:59:29.138Z,100616.06
2022-11-05T16:00:29.660Z,100618.97
2022-11-05T16:01:31.544Z,100618.82
2022-11-05T16:02:35.797Z,100615.45
2022-11-05T16:03:38.699Z,100623.2
2022-11-05T16:04:36.339Z,100622.12
2022-11-05T16:05:43.423Z,100615.62
2022-11-05T16:06:42.909Z,100618.03
2022-11-05T16:07:46.294Z,100617.85
2022-11-05T16:08:49.480Z,100620.43
2022-11-05T16:10:50.823Z,100612.86
2022-11-05T16:11:48.794Z,100611.19
2022-11-05T16:12:49.389Z,100612.33
2022-11-05T16:13:49.817Z,100610.77
2022-11-05T16:16:55.367Z,100606.2
2022-11-05T16:17:58.039Z,100604.14
2022-11-05T16:18:56.206Z,100603.65
2022-11-05T16:19:56.798Z,100605.65
2022-11-05T16:21:56.723Z,100605.81
2022-11-05T16:23:00.835Z,100602.23
2022-11-05T16:23:59.518Z,100603.81
2022-11-05T16:24:58.790Z,100600.01
2022-11-05T16:25:59.223Z,100601.4
2022-11-05T16:27:03.249Z,100593.28
2022-11-05T16:28:02.209Z,100592.77
2022-11-05T16:30:06.715Z,100587.77
2022-11-05T16:31:06.131Z,100587.54
2022-11-05T16:33:08.177Z,100588.3
2022-11-05T16:34:06.956Z,100587.61
2022-11-05T16:36:09.626Z,100583.97
2022-11-05T16:37:13.837Z,100586.17
2022-11-05T16:38:13.618Z,100582.14
2022-11-05T16:39:11.597Z,100581.27
2022-11-05T16:40:19.077Z,100574.43
2022-11-05T16:41:19.510Z,100577.23
2022-11-05T16:43:23.392Z,100574.94
2022-11-05T16:44:21.357Z,100569.2
2022-11-05T16:45:23.713Z,100576.11
2022-11-05T16:46:22.599Z,100574.84
2022-11-05T16:47:22.806Z,100571.38
2022-11-05T16:48:22.296Z,100571.77
2022-11-05T16:49:22.817Z,100569.92
2022-11-05T16:50:30.186Z,100571.95
2022-11-05T16:51:28.451Z,100574.68
2022-11-05T16:52:28.478Z,100569.45
2022-11-05T16:53:28.897Z,100574.95
2022-11-05T16:54:28.585Z,100574.91
2022-11-05T16:55:30.733Z,100577.5
2022-11-05T16:56:29.412Z,100574.35
2022-11-05T16:57:31.772Z,100570.03
2022-11-05T16:58:30.474Z,100576.16
2022-11-05T16:59:30.367Z,100574.83
2022-11-05T17:00:30.976Z,100571.7
2022-11-05T17:01:32.132Z,100575.91
2022-11-05T17:02:31.317Z,100571.7
2022-11-05T17:03:32.026Z,100567.98
2022-11-05T17:04:32.239Z,100571.3
2022-11-05T17:05:32.965Z,100569.16
2022-11-05T17:06:32.765Z,100572.03
2022-11-05T17:07:35.849Z,100577.56
2022-11-05T17:08:37.884Z,100575.34
2022-11-05T17:09:37.979Z,100566.52
2022-11-05T17:10:38.825Z,100563.84
2022-11-05T17:11:38.635Z,100564.48
2022-11-05T17:12:39.253Z,100566.39
2022-11-05T17:13:39.563Z,100574.5
2022-11-05T17:14:40.107Z,100572.62